createdAt,value
2019-05-16T00:02:48.113Z,4.13
2019-05-16T00:07:54.757Z,4.13
2019-05-16T00:13:00.198Z,4.47
2019-05-16T00:18:08.726Z,5.93
2019-05-16T00:23:18.122Z,3.50
2019-05-16T00:28:24.094Z,2.50
2019-05-16T00:33:30.630Z,6.00
2019-05-16T00:38:37.958Z,4.10
2019-05-16T00:43:43.600Z,5.50
2019-05-16T00:48:49.180Z,2.93
2019-05-16T00:53:55.542Z,1.70
2019-05-16T00:59:02.983Z,3.47
2019-05-16T01:04:08.622Z,3.33
2019-05-16T01:09:14.868Z,2.50
2019-05-16T01:14:20.674Z,3.43
2019-05-16T01:19:27.807Z,4.60
2019-05-16T01:24:34.356Z,5.30
2019-05-16T01:29:41.006Z,3.40
2019-05-16T01:34:48.330Z,4.57
2019-05-16T01:39:55.342Z,3.30
2019-05-16T01:45:00.932Z,8.43
2019-05-16T01:50:08.721Z,6.80
2019-05-16T01:55:14.536Z,3.77
2019-05-16T02:00:24.567Z,4.13
2019-05-16T02:05:28.444Z,4.63
2019-05-16T02:10:34.770Z,4.23
2019-05-16T02:15:41.233Z,3.63
2019-05-16T02:20:48.068Z,4.90
2019-05-16T02:25:53.724Z,4.90
2019-05-16T02:31:01.207Z,4.20
2019-05-16T02:36:06.959Z,4.70
2019-05-16T02:41:12.489Z,4.83
2019-05-16T02:46:18.025Z,4.37
2019-05-16T02:51:23.664Z,3.93
2019-05-16T02:56:31.750Z,3.83
2019-05-16T03:01:37.003Z,4.90
2019-05-16T03:06:42.791Z,3.77
2019-05-16T03:11:50.973Z,4.90
2019-05-16T03:17:01.021Z,3.93
2019-05-16T03:22:08.004Z,5.47
2019-05-16T03:27:13.588Z,4.33
2019-05-16T03:32:24.395Z,4.40
2019-05-16T03:37:30.529Z,4.97
2019-05-16T03:42:36.587Z,5.97
2019-05-16T03:47:43.327Z,5.33
2019-05-16T03:52:50.819Z,4.57
2019-05-16T03:58:00.863Z,5.17
2019-05-16T04:03:06.207Z,6.33
2019-05-16T04:08:19.232Z,5.73
2019-05-16T04:13:21.553Z,5.80
2019-05-16T04:18:31.822Z,10.17
2019-05-16T04:23:37.838Z,7.07
2019-05-16T04:28:43.425Z,6.27
2019-05-16T04:33:51.608Z,6.53
2019-05-16T04:38:56.690Z,8.07
2019-05-16T04:44:04.841Z,8.90
2019-05-16T04:49:11.652Z,6.40
2019-05-16T04:54:17.316Z,6.63
2019-05-16T04:59:22.992Z,7.47
2019-05-16T05:04:30.599Z,8.80
2019-05-16T05:09:40.624Z,6.47
2019-05-16T05:14:46.268Z,8.60
2019-05-16T05:19:54.030Z,9.80
2019-05-16T05:25:00.574Z,9.00
2019-05-16T05:30:10.657Z,10.17
2019-05-16T05:35:20.464Z,12.43
2019-05-16T05:40:26.638Z,10.30
2019-05-16T05:45:33.461Z,9.37
2019-05-16T05:50:40.266Z,8.67
2019-05-16T05:55:46.978Z,9.40
2019-05-16T06:00:53.709Z,9.87
2019-05-16T06:06:01.049Z,12.57
2019-05-16T06:11:09.913Z,12.43
2019-05-16T06:16:16.331Z,10.43
2019-05-16T06:21:22.646Z,8.17
2019-05-16T06:26:30.326Z,7.53
2019-05-16T06:31:37.541Z,9.23
2019-05-16T06:36:44.394Z,12.70
2019-05-16T06:41:51.246Z,10.08
2019-05-16T06:47:14.961Z,9.80
2019-05-16T06:52:05.669Z,9.07
2019-05-16T06:57:12.334Z,10.13
2019-05-16T07:02:27.682Z,13.10
2019-05-16T07:07:26.100Z,12.20
2019-05-16T07:12:34.189Z,14.10
2019-05-16T07:17:41.282Z,8.50
2019-05-16T07:22:50.216Z,12.17
2019-05-16T07:27:56.531Z,10.30
2019-05-16T07:33:03.680Z,12.53
2019-05-16T07:38:10.775Z,11.65
2019-05-16T07:43:17.406Z,11.63
2019-05-16T07:48:24.160Z,11.90
2019-05-16T07:53:33.141Z,12.37
2019-05-16T07:58:37.825Z,12.53
2019-05-16T08:03:44.123Z,13.20
2019-05-16T08:08:50.991Z,14.13
2019-05-16T08:13:57.821Z,13.72
2019-05-16T08:19:03.964Z,12.65
2019-05-16T08:24:14.983Z,12.85
2019-05-16T08:29:17.687Z,10.80
2019-05-16T08:34:23.234Z,11.48
2019-05-16T08:39:31.093Z,14.65
2019-05-16T08:44:41.549Z,12.60
2019-05-16T08:49:45.197Z,12.58
2019-05-16T08:54:51.477Z,13.38
2019-05-16T09:00:00.542Z,13.95
2019-05-16T09:05:06.294Z,12.53
2019-05-16T09:10:45.716Z,15.00
2019-05-16T09:15:19.537Z,13.78
2019-05-16T09:20:27.745Z,14.07
2019-05-16T09:25:33.386Z,11.53
2019-05-16T09:30:39.045Z,13.90
2019-05-16T09:35:47.550Z,11.75
2019-05-16T09:40:53.168Z,12.90
2019-05-16T09:46:03.704Z,13.88
2019-05-16T09:51:07.729Z,14.90
2019-05-16T09:56:13.252Z,12.68
2019-05-16T10:01:19.083Z,12.28
2019-05-16T10:06:27.562Z,11.65
2019-05-16T10:11:40.756Z,14.50
2019-05-16T10:16:42.893Z,9.60
2019-05-16T10:21:49.624Z,9.13
2019-05-16T10:26:57.211Z,10.55
2019-05-16T10:32:03.964Z,11.75
2019-05-16T10:37:09.724Z,13.85
2019-05-16T10:42:27.941Z,13.18
2019-05-16T10:47:28.728Z,10.70
2019-05-16T10:52:32.923Z,9.25
2019-05-16T10:57:39.615Z,10.03
2019-05-16T11:02:47.959Z,11.75
2019-05-16T11:07:57.393Z,10.80
2019-05-16T11:13:03.039Z,11.25
2019-05-16T11:18:09.775Z,12.05
2019-05-16T11:23:23.257Z,11.00
2019-05-16T11:28:27.496Z,8.78
2019-05-16T11:33:36.852Z,8.90
2019-05-16T11:38:41.683Z,9.35
2019-05-16T11:43:48.344Z,9.35
2019-05-16T11:48:53.951Z,9.90
2019-05-16T11:54:00.715Z,9.30
2019-05-16T11:59:07.858Z,9.63
2019-05-16T12:04:14.169Z,12.10
2019-05-16T12:09:19.735Z,10.75
2019-05-16T12:14:27.219Z,10.78
2019-05-16T12:19:35.393Z,8.38
2019-05-16T12:24:41.654Z,7.78
2019-05-16T12:29:54.658Z,6.55
2019-05-16T12:34:56.897Z,6.75
2019-05-16T12:40:03.679Z,7.00
2019-05-16T12:45:10.656Z,9.33
2019-05-16T12:50:18.205Z,7.72
2019-05-16T12:55:23.717Z,6.30
2019-05-16T13:00:29.926Z,9.63
2019-05-16T13:05:37.674Z,9.93
2019-05-16T13:10:46.802Z,8.43
2019-05-16T13:15:52.462Z,7.40
2019-05-16T13:20:58.390Z,6.87
2019-05-16T13:26:07.226Z,4.78
2019-05-16T13:31:17.290Z,8.98
2019-05-16T13:36:24.132Z,7.15
2019-05-16T13:41:34.508Z,7.75
2019-05-16T13:46:40.702Z,7.87
2019-05-16T13:51:47.667Z,6.22
2019-05-16T13:56:57.088Z,7.83
2019-05-16T14:02:07.928Z,7.20
2019-05-16T14:07:17.022Z,5.15
2019-05-16T14:12:26.767Z,7.33
2019-05-16T14:17:36.789Z,7.42
2019-05-16T14:22:44.594Z,7.80
2019-05-16T14:27:56.670Z,7.30
2019-05-16T14:33:01.842Z,7.53
2019-05-16T14:38:09.662Z,7.17
2019-05-16T14:43:17.146Z,8.28
2019-05-16T14:48:23.006Z,8.85
2019-05-16T14:53:28.681Z,7.20
2019-05-16T14:58:37.474Z,7.47
2019-05-16T15:03:41.499Z,5.95
2019-05-16T15:08:47.634Z,9.05
2019-05-16T15:13:53.059Z,6.95
2019-05-16T15:18:59.517Z,7.75
2019-05-16T15:24:06.991Z,9.03
2019-05-16T15:29:13.681Z,8.95
2019-05-16T15:34:19.222Z,8.35
2019-05-16T15:39:27.468Z,7.80
2019-05-16T15:44:32.321Z,8.08
2019-05-16T15:49:39.038Z,8.20
2019-05-16T15:54:46.614Z,7.20
2019-05-16T15:59:52.920Z,9.20
2019-05-16T16:04:59.633Z,7.58
2019-05-16T16:10:07.171Z,6.65
2019-05-16T16:15:14.516Z,8.88
2019-05-16T16:20:20.379Z,7.17
2019-05-16T16:25:26.831Z,6.92
2019-05-16T16:30:32.652Z,6.20
2019-05-16T16:35:39.183Z,9.05
2019-05-16T16:40:47.831Z,8.78
2019-05-16T16:46:06.108Z,5.03
2019-05-16T16:51:06.620Z,5.22
2019-05-16T16:56:12.729Z,6.20
2019-05-16T17:01:19.193Z,5.12
2019-05-16T17:06:27.080Z,5.28
2019-05-16T17:11:33.390Z,7.28
2019-05-16T17:16:39.946Z,8.20
2019-05-16T17:22:01.779Z,5.60
2019-05-16T17:26:57.600Z,5.90
2019-05-16T17:32:07.135Z,5.90
2019-05-16T17:37:11.378Z,7.40
2019-05-16T17:42:18.061Z,6.78
2019-05-16T17:47:23.749Z,5.55
2019-05-16T17:52:31.667Z,6.95
2019-05-16T17:57:37.264Z,7.35
2019-05-16T18:02:46.396Z,7.95
2019-05-16T18:07:51.712Z,6.55
2019-05-16T18:12:58.206Z,5.80
2019-05-16T18:18:03.714Z,6.12
2019-05-16T18:23:13.392Z,6.80
2019-05-16T18:28:20.005Z,6.28
2019-05-16T18:33:30.097Z,6.80
2019-05-16T18:38:37.439Z,7.00
2019-05-16T18:43:43.493Z,6.62
2019-05-16T18:48:51.051Z,6.35
2019-05-16T18:53:57.065Z,10.38
2019-05-16T18:59:03.669Z,7.97
2019-05-16T19:04:09.155Z,8.33
2019-05-16T19:09:16.613Z,7.87
2019-05-16T19:14:22.188Z,7.40
2019-05-16T19:19:28.248Z,7.37
2019-05-16T19:24:33.755Z,10.90
2019-05-16T19:29:40.513Z,8.50
2019-05-16T19:34:49.243Z,8.68
2019-05-16T19:39:56.811Z,11.22
2019-05-16T19:45:02.978Z,10.32
2019-05-16T19:50:10.944Z,11.20
2019-05-16T19:55:16.859Z,11.60
2019-05-16T20:00:22.706Z,11.63
2019-05-16T20:05:29.043Z,13.30
2019-05-16T20:10:36.633Z,12.53
2019-05-16T20:15:43.686Z,13.05
2019-05-16T20:20:50.778Z,13.55
2019-05-16T20:25:57.642Z,12.63
2019-05-16T20:31:04.257Z,12.58
2019-05-16T20:36:10.877Z,12.35
2019-05-16T20:41:17.233Z,11.90
2019-05-16T20:46:23.592Z,14.00
2019-05-16T20:51:30.314Z,15.78
2019-05-16T20:56:36.932Z,13.62
2019-05-16T21:01:42.952Z,14.85
2019-05-16T21:07:00.269Z,12.18
2019-05-16T21:11:57.151Z,15.90
2019-05-16T21:17:02.947Z,12.50
2019-05-16T21:22:08.385Z,13.58
2019-05-16T21:27:13.889Z,12.03
2019-05-16T21:32:19.169Z,13.23
2019-05-16T21:37:26.775Z,12.20
2019-05-16T21:42:31.965Z,11.80
2019-05-16T21:47:38.487Z,12.68
2019-05-16T21:52:44.080Z,13.72
2019-05-16T21:57:49.790Z,15.65
2019-05-16T22:02:57.324Z,14.83
2019-05-16T22:08:02.760Z,15.60
2019-05-16T22:13:08.468Z,13.62
2019-05-16T22:18:16.399Z,14.90
2019-05-16T22:23:22.214Z,16.90
2019-05-16T22:28:30.152Z,17.70
2019-05-16T22:33:37.603Z,15.07
2019-05-16T22:38:43.701Z,13.98
2019-05-16T22:43:49.154Z,16.70
2019-05-16T22:48:55.540Z,17.15
2019-05-16T22:54:01.891Z,18.57
2019-05-16T22:59:07.631Z,18.92
2019-05-16T23:04:13.979Z,18.32
2019-05-16T23:09:19.392Z,19.37
2019-05-16T23:14:26.381Z,18.33
2019-05-16T23:19:32.476Z,20.97
2019-05-16T23:24:39.280Z,23.67
2019-05-16T23:29:47.277Z,18.63
2019-05-16T23:34:53.486Z,17.57
2019-05-16T23:39:59.916Z,21.40
2019-05-16T23:45:08.800Z,23.10
2019-05-16T23:50:16.839Z,22.93
2019-05-16T23:55:21.531Z,21.47
